sensor_id;sensor_type;location;lat;lon;timestamp;P1;durP1;ratioP1;P2;durP2;ratioP2
25091;SDS011;13082;52.374;4.946;2024-01-10T00:01:58;6.53;;;3.87;;
25091;SDS011;13082;52.374;4.946;2024-01-10T00:04:23;5.33;;;3.73;;
25091;SDS011;13082;52.374;4.946;2024-01-10T00:06:49;5.20;;;3.90;;
25091;SDS011;13082;52.374;4.946;2024-01-10T00:09:15;7.17;;;3.60;;
25091;SDS011;13082;52.374;4.946;2024-01-10T00:11:40;4.33;;;3.67;;
25091;SDS011;13082;52.374;4.946;2024-01-10T00:14:06;4.77;;;3.90;;
25091;SDS011;13082;52.374;4.946;2024-01-10T00:16:31;4.53;;;4.07;;
25091;SDS011;13082;52.374;4.946;2024-01-10T00:18:57;5.33;;;4.17;;
25091;SDS011;13082;52.374;4.946;2024-01-10T00:21:23;4.13;;;3.60;;
25091;SDS011;13082;52.374;4.946;2024-01-10T00:23:48;4.57;;;4.03;;
25091;SDS011;13082;52.374;4.946;2024-01-10T00:26:14;5.27;;;4.27;;
25091;SDS011;13082;52.374;4.946;2024-01-10T00:28:41;5.10;;;4.03;;
25091;SDS011;13082;52.374;4.946;2024-01-10T00:31:06;5.27;;;4.30;;
25091;SDS011;13082;52.374;4.946;2024-01-10T00:33:32;5.47;;;3.97;;
25091;SDS011;13082;52.374;4.946;2024-01-10T00:35:58;6.90;;;4.83;;
25091;SDS011;13082;52.374;4.946;2024-01-10T00:38:23;5.70;;;4.50;;
25091;SDS011;13082;52.374;4.946;2024-01-10T00:40:49;4.67;;;4.00;;
25091;SDS011;13082;52.374;4.946;2024-01-10T00:43:14;5.27;;;4.50;;
25091;SDS011;13082;52.374;4.946;2024-01-10T00:45:40;5.13;;;4.23;;
25091;SDS011;13082;52.374;4.946;2024-01-10T00:48:06;5.67;;;4.87;;
25091;SDS011;13082;52.374;4.946;2024-01-10T00:50:31;6.33;;;4.80;;
25091;SDS011;13082;52.374;4.946;2024-01-10T00:52:57;7.00;;;5.07;;
25091;SDS011;13082;52.374;4.946;2024-01-10T00:55:22;6.67;;;5.00;;
25091;SDS011;13082;52.374;4.946;2024-01-10T00:57:48;5.23;;;4.27;;
25091;SDS011;13082;52.374;4.946;2024-01-10T01:00:14;6.00;;;5.30;;
25091;SDS011;13082;52.374;4.946;2024-01-10T01:02:39;5.27;;;4.40;;
25091;SDS011;13082;52.374;4.946;2024-01-10T01:05:06;7.60;;;4.63;;
25091;SDS011;13082;52.374;4.946;2024-01-10T01:07:32;6.13;;;5.10;;
25091;SDS011;13082;52.374;4.946;2024-01-10T01:09:58;6.53;;;4.90;;
25091;SDS011;13082;52.374;4.946;2024-01-10T01:12:24;6.40;;;4.70;;
25091;SDS011;13082;52.374;4.946;2024-01-10T01:14:50;6.37;;;4.87;;
25091;SDS011;13082;52.374;4.946;2024-01-10T01:17:15;6.73;;;4.70;;
25091;SDS011;13082;52.374;4.946;2024-01-10T01:19:41;6.57;;;5.43;;
25091;SDS011;13082;52.374;4.946;2024-01-10T01:22:07;5.67;;;4.93;;
25091;SDS011;13082;52.374;4.946;2024-01-10T01:24:32;6.57;;;5.47;;
25091;SDS011;13082;52.374;4.946;2024-01-10T01:26:58;7.80;;;5.53;;
25091;SDS011;13082;52.374;4.946;2024-01-10T01:29:24;8.07;;;5.13;;
25091;SDS011;13082;52.374;4.946;2024-01-10T01:31:49;6.00;;;5.33;;
25091;SDS011;13082;52.374;4.946;2024-01-10T01:34:15;6.60;;;5.07;;
25091;SDS011;13082;52.374;4.946;2024-01-10T01:36:41;6.80;;;5.13;;
25091;SDS011;13082;52.374;4.946;2024-01-10T01:39:06;9.00;;;5.53;;
25091;SDS011;13082;52.374;4.946;2024-01-10T01:41:32;7.73;;;6.03;;
25091;SDS011;13082;52.374;4.946;2024-01-10T01:43:57;6.57;;;5.40;;
25091;SDS011;13082;52.374;4.946;2024-01-10T01:46:23;5.50;;;4.90;;
25091;SDS011;13082;52.374;4.946;2024-01-10T01:48:49;6.53;;;5.53;;
25091;SDS011;13082;52.374;4.946;2024-01-10T01:51:15;6.17;;;4.77;;
25091;SDS011;13082;52.374;4.946;2024-01-10T01:53:44;7.87;;;5.13;;
25091;SDS011;13082;52.374;4.946;2024-01-10T01:56:10;7.17;;;5.67;;
25091;SDS011;13082;52.374;4.946;2024-01-10T01:58:37;5.80;;;4.80;;
25091;SDS011;13082;52.374;4.946;2024-01-10T02:01:05;6.87;;;5.27;;
25091;SDS011;13082;52.374;4.946;2024-01-10T02:03:31;7.77;;;5.10;;
25091;SDS011;13082;52.374;4.946;2024-01-10T02:06:00;7.73;;;5.67;;
25091;SDS011;13082;52.374;4.946;2024-01-10T02:08:29;6.90;;;5.10;;
25091;SDS011;13082;52.374;4.946;2024-01-10T02:10:57;6.97;;;5.10;;
25091;SDS011;13082;52.374;4.946;2024-01-10T02:13:23;7.27;;;5.43;;
25091;SDS011;13082;52.374;4.946;2024-01-10T02:15:49;6.17;;;4.70;;
25091;SDS011;13082;52.374;4.946;2024-01-10T02:18:16;6.57;;;4.63;;
25091;SDS011;13082;52.374;4.946;2024-01-10T02:20:44;7.10;;;4.43;;
25091;SDS011;13082;52.374;4.946;2024-01-10T02:23:10;6.77;;;5.50;;
25091;SDS011;13082;52.374;4.946;2024-01-10T02:25:36;6.87;;;5.37;;
25091;SDS011;13082;52.374;4.946;2024-01-10T02:28:03;8.13;;;5.70;;
25091;SDS011;13082;52.374;4.946;2024-01-10T02:30:28;6.83;;;5.67;;
25091;SDS011;13082;52.374;4.946;2024-01-10T02:32:54;5.70;;;5.03;;
25091;SDS011;13082;52.374;4.946;2024-01-10T02:35:20;6.70;;;5.60;;
25091;SDS011;13082;52.374;4.946;2024-01-10T02:37:45;6.13;;;5.03;;
25091;SDS011;13082;52.374;4.946;2024-01-10T02:40:11;6.50;;;5.40;;
25091;SDS011;13082;52.374;4.946;2024-01-10T02:42:37;6.70;;;5.00;;
25091;SDS011;13082;52.374;4.946;2024-01-10T02:45:03;9.37;;;5.77;;
25091;SDS011;13082;52.374;4.946;2024-01-10T02:47:29;7.77;;;5.50;;
25091;SDS011;13082;52.374;4.946;2024-01-10T02:49:54;8.60;;;5.60;;
25091;SDS011;13082;52.374;4.946;2024-01-10T02:52:20;8.03;;;5.90;;
25091;SDS011;13082;52.374;4.946;2024-01-10T02:54:46;8.70;;;6.00;;
25091;SDS011;13082;52.374;4.946;2024-01-10T02:57:12;7.20;;;5.53;;
25091;SDS011;13082;52.374;4.946;2024-01-10T02:59:38;9.07;;;6.00;;
25091;SDS011;13082;52.374;4.946;2024-01-10T03:02:03;7.67;;;5.43;;
25091;SDS011;13082;52.374;4.946;2024-01-10T03:04:29;8.37;;;6.40;;
25091;SDS011;13082;52.374;4.946;2024-01-10T03:06:55;9.33;;;6.63;;
25091;SDS011;13082;52.374;4.946;2024-01-10T03:09:21;7.73;;;5.97;;
25091;SDS011;13082;52.374;4.946;2024-01-10T03:11:47;7.93;;;6.40;;
25091;SDS011;13082;52.374;4.946;2024-01-10T03:14:13;9.60;;;6.27;;
25091;SDS011;13082;52.374;4.946;2024-01-10T03:16:38;6.77;;;5.33;;
25091;SDS011;13082;52.374;4.946;2024-01-10T03:19:04;7.23;;;5.20;;
25091;SDS011;13082;52.374;4.946;2024-01-10T03:21:30;7.93;;;5.60;;
25091;SDS011;13082;52.374;4.946;2024-01-10T03:23:56;7.77;;;6.17;;
25091;SDS011;13082;52.374;4.946;2024-01-10T03:26:22;8.10;;;5.57;;
25091;SDS011;13082;52.374;4.946;2024-01-10T03:28:48;6.67;;;5.47;;
25091;SDS011;13082;52.374;4.946;2024-01-10T03:31:14;7.83;;;5.77;;
25091;SDS011;13082;52.374;4.946;2024-01-10T03:33:40;5.97;;;5.13;;
25091;SDS011;13082;52.374;4.946;2024-01-10T03:36:06;6.60;;;5.23;;
25091;SDS011;13082;52.374;4.946;2024-01-10T03:38:35;7.50;;;5.37;;
25091;SDS011;13082;52.374;4.946;2024-01-10T03:41:00;7.90;;;5.70;;
25091;SDS011;13082;52.374;4.946;2024-01-10T03:43:26;7.37;;;5.27;;
25091;SDS011;13082;52.374;4.946;2024-01-10T03:45:51;6.90;;;5.20;;
25091;SDS011;13082;52.374;4.946;2024-01-10T03:48:17;6.00;;;4.90;;
25091;SDS011;13082;52.374;4.946;2024-01-10T03:50:42;6.63;;;5.17;;
25091;SDS011;13082;52.374;4.946;2024-01-10T03:53:08;7.60;;;5.53;;
25091;SDS011;13082;52.374;4.946;2024-01-10T03:55:34;11.27;;;5.87;;
25091;SDS011;13082;52.374;4.946;2024-01-10T03:57:59;6.70;;;5.20;;
25091;SDS011;13082;52.374;4.946;2024-01-10T04:00:25;5.47;;;4.87;;
25091;SDS011;13082;52.374;4.946;2024-01-10T04:02:50;5.07;;;4.43;;
25091;SDS011;13082;52.374;4.946;2024-01-10T04:05:17;8.03;;;5.77;;
25091;SDS011;13082;52.374;4.946;2024-01-10T04:07:43;6.93;;;5.40;;
25091;SDS011;13082;52.374;4.946;2024-01-10T04:10:09;5.87;;;4.90;;
25091;SDS011;13082;52.374;4.946;2024-01-10T04:12:36;5.80;;;5.03;;
25091;SDS011;13082;52.374;4.946;2024-01-10T04:15:03;6.13;;;4.93;;
25091;SDS011;13082;52.374;4.946;2024-01-10T04:17:29;7.20;;;5.10;;
25091;SDS011;13082;52.374;4.946;2024-01-10T04:19:55;6.93;;;5.33;;
25091;SDS011;13082;52.374;4.946;2024-01-10T04:22:20;7.30;;;5.60;;
25091;SDS011;13082;52.374;4.946;2024-01-10T04:24:46;6.50;;;4.47;;
25091;SDS011;13082;52.374;4.946;2024-01-10T04:27:12;5.27;;;4.43;;
25091;SDS011;13082;52.374;4.946;2024-01-10T04:29:37;8.07;;;5.63;;
25091;SDS011;13082;52.374;4.946;2024-01-10T04:32:03;6.50;;;5.10;;
25091;SDS011;13082;52.374;4.946;2024-01-10T04:34:29;7.53;;;5.33;;
25091;SDS011;13082;52.374;4.946;2024-01-10T04:36:55;6.30;;;5.00;;
25091;SDS011;13082;52.374;4.946;2024-01-10T04:39:20;6.43;;;4.67;;
25091;SDS011;13082;52.374;4.946;2024-01-10T04:41:46;6.27;;;4.83;;
25091;SDS011;13082;52.374;4.946;2024-01-10T04:44:11;6.20;;;4.87;;
25091;SDS011;13082;52.374;4.946;2024-01-10T04:46:37;6.93;;;5.23;;
25091;SDS011;13082;52.374;4.946;2024-01-10T04:49:02;7.37;;;5.17;;
25091;SDS011;13082;52.374;4.946;2024-01-10T04:51:28;6.53;;;5.03;;
25091;SDS011;13082;52.374;4.946;2024-01-10T04:53:54;5.90;;;4.30;;
25091;SDS011;13082;52.374;4.946;2024-01-10T04:56:20;7.17;;;5.00;;
25091;SDS011;13082;52.374;4.946;2024-01-10T04:58:46;7.87;;;5.40;;
25091;SDS011;13082;52.374;4.946;2024-01-10T05:01:11;7.07;;;5.27;;
25091;SDS011;13082;52.374;4.946;2024-01-10T05:03:37;6.47;;;4.73;;
25091;SDS011;13082;52.374;4.946;2024-01-10T05:06:03;7.07;;;5.10;;
25091;SDS011;13082;52.374;4.946;2024-01-10T05:08:29;7.50;;;4.93;;
25091;SDS011;13082;52.374;4.946;2024-01-10T05:10:55;5.73;;;4.87;;
25091;SDS011;13082;52.374;4.946;2024-01-10T05:13:21;7.90;;;5.40;;
25091;SDS011;13082;52.374;4.946;2024-01-10T05:15:46;5.80;;;5.27;;
25091;SDS011;13082;52.374;4.946;2024-01-10T05:18:12;5.60;;;5.00;;
25091;SDS011;13082;52.374;4.946;2024-01-10T05:20:37;7.10;;;5.50;;
25091;SDS011;13082;52.374;4.946;2024-01-10T05:23:03;5.83;;;4.50;;
25091;SDS011;13082;52.374;4.946;2024-01-10T05:25:29;5.90;;;4.90;;
25091;SDS011;13082;52.374;4.946;2024-01-10T05:27:54;6.57;;;5.20;;
25091;SDS011;13082;52.374;4.946;2024-01-10T05:30:20;6.93;;;4.60;;
25091;SDS011;13082;52.374;4.946;2024-01-10T05:32:45;7.60;;;4.87;;
25091;SDS011;13082;52.374;4.946;2024-01-10T05:35:11;7.60;;;5.10;;
25091;SDS011;13082;52.374;4.946;2024-01-10T05:37:37;8.13;;;5.03;;
25091;SDS011;13082;52.374;4.946;2024-01-10T05:40:03;7.57;;;5.30;;
25091;SDS011;13082;52.374;4.946;2024-01-10T05:42:31;6.00;;;4.70;;
25091;SDS011;13082;52.374;4.946;2024-01-10T05:44:58;7.07;;;4.63;;
25091;SDS011;13082;52.374;4.946;2024-01-10T05:47:24;8.57;;;4.80;;
25091;SDS011;13082;52.374;4.946;2024-01-10T05:49:51;7.67;;;4.17;;
25091;SDS011;13082;52.374;4.946;2024-01-10T05:52:18;6.30;;;4.67;;
25091;SDS011;13082;52.374;4.946;2024-01-10T05:54:44;5.77;;;4.70;;
25091;SDS011;13082;52.374;4.946;2024-01-10T05:57:10;8.23;;;4.87;;
25091;SDS011;13082;52.374;4.946;2024-01-10T05:59:35;7.03;;;4.60;;
25091;SDS011;13082;52.374;4.946;2024-01-10T06:02:02;7.27;;;4.80;;
25091;SDS011;13082;52.374;4.946;2024-01-10T06:04:28;6.23;;;4.63;;
25091;SDS011;13082;52.374;4.946;2024-01-10T06:06:57;10.57;;;4.53;;
25091;SDS011;13082;52.374;4.946;2024-01-10T06:09:23;7.73;;;4.80;;
25091;SDS011;13082;52.374;4.946;2024-01-10T06:11:49;7.40;;;4.60;;
25091;SDS011;13082;52.374;4.946;2024-01-10T06:14:15;6.10;;;4.70;;
25091;SDS011;13082;52.374;4.946;2024-01-10T06:16:40;10.00;;;4.87;;
25091;SDS011;13082;52.374;4.946;2024-01-10T06:19:06;5.77;;;4.30;;
25091;SDS011;13082;52.374;4.946;2024-01-10T06:21:31;6.63;;;4.63;;
25091;SDS011;13082;52.374;4.946;2024-01-10T06:23:57;5.87;;;4.50;;
25091;SDS011;13082;52.374;4.946;2024-01-10T06:26:23;5.70;;;4.30;;
25091;SDS011;13082;52.374;4.946;2024-01-10T06:28:48;6.27;;;4.53;;
25091;SDS011;13082;52.374;4.946;2024-01-10T06:31:14;5.90;;;4.10;;
25091;SDS011;13082;52.374;4.946;2024-01-10T06:33:39;5.87;;;4.77;;
25091;SDS011;13082;52.374;4.946;2024-01-10T06:36:05;5.67;;;4.50;;
25091;SDS011;13082;52.374;4.946;2024-01-10T06:38:31;7.37;;;5.10;;
25091;SDS011;13082;52.374;4.946;2024-01-10T06:40:56;7.77;;;4.73;;
25091;SDS011;13082;52.374;4.946;2024-01-10T06:43:22;6.53;;;5.53;;
25091;SDS011;13082;52.374;4.946;2024-01-10T06:45:48;5.43;;;4.47;;
25091;SDS011;13082;52.374;4.946;2024-01-10T06:48:14;6.97;;;4.73;;
25091;SDS011;13082;52.374;4.946;2024-01-10T06:50:40;7.77;;;4.57;;
25091;SDS011;13082;52.374;4.946;2024-01-10T06:53:05;4.53;;;3.73;;
25091;SDS011;13082;52.374;4.946;2024-01-10T06:55:31;4.10;;;3.60;;
25091;SDS011;13082;52.374;4.946;2024-01-10T06:57:57;6.50;;;4.40;;
25091;SDS011;13082;52.374;4.946;2024-01-10T07:00:22;5.83;;;4.57;;
25091;SDS011;13082;52.374;4.946;2024-01-10T07:02:48;6.00;;;4.43;;
25091;SDS011;13082;52.374;4.946;2024-01-10T07:05:14;5.47;;;4.13;;
25091;SDS011;13082;52.374;4.946;2024-01-10T07:07:41;6.47;;;4.80;;
25091;SDS011;13082;52.374;4.946;2024-01-10T07:10:07;5.60;;;4.03;;
25091;SDS011;13082;52.374;4.946;2024-01-10T07:12:36;5.13;;;4.00;;
25091;SDS011;13082;52.374;4.946;2024-01-10T07:15:01;5.87;;;4.67;;
25091;SDS011;13082;52.374;4.946;2024-01-10T07:17:28;7.33;;;3.80;;
25091;SDS011;13082;52.374;4.946;2024-01-10T07:19:53;5.93;;;3.90;;
25091;SDS011;13082;52.374;4.946;2024-01-10T07:22:21;5.00;;;3.90;;
25091;SDS011;13082;52.374;4.946;2024-01-10T07:24:50;6.17;;;4.63;;
25091;SDS011;13082;52.374;4.946;2024-01-10T07:27:15;4.43;;;3.60;;
25091;SDS011;13082;52.374;4.946;2024-01-10T07:29:41;6.23;;;3.73;;
25091;SDS011;13082;52.374;4.946;2024-01-10T07:32:07;6.23;;;4.10;;
25091;SDS011;13082;52.374;4.946;2024-01-10T07:34:38;4.97;;;4.00;;
25091;SDS011;13082;52.374;4.946;2024-01-10T07:37:04;5.83;;;3.80;;
25091;SDS011;13082;52.374;4.946;2024-01-10T07:39:30;4.87;;;3.80;;
25091;SDS011;13082;52.374;4.946;2024-01-10T07:41:56;4.97;;;3.67;;
25091;SDS011;13082;52.374;4.946;2024-01-10T07:44:21;6.13;;;4.33;;
25091;SDS011;13082;52.374;4.946;2024-01-10T07:46:47;6.73;;;4.87;;
25091;SDS011;13082;52.374;4.946;2024-01-10T07:49:13;5.23;;;4.10;;
25091;SDS011;13082;52.374;4.946;2024-01-10T07:51:41;5.13;;;3.93;;
25091;SDS011;13082;52.374;4.946;2024-01-10T07:54:07;4.13;;;3.70;;
25091;SDS011;13082;52.374;4.946;2024-01-10T07:56:32;6.20;;;4.13;;
25091;SDS011;13082;52.374;4.946;2024-01-10T07:58:58;5.30;;;4.27;;
25091;SDS011;13082;52.374;4.946;2024-01-10T08:01:24;5.30;;;3.27;;
25091;SDS011;13082;52.374;4.946;2024-01-10T08:03:49;5.00;;;3.67;;
25091;SDS011;13082;52.374;4.946;2024-01-10T08:06:15;4.93;;;3.20;;
25091;SDS011;13082;52.374;4.946;2024-01-10T08:08:41;7.70;;;4.80;;
25091;SDS011;13082;52.374;4.946;2024-01-10T08:11:06;6.20;;;4.40;;
25091;SDS011;13082;52.374;4.946;2024-01-10T08:13:32;5.50;;;4.37;;
25091;SDS011;13082;52.374;4.946;2024-01-10T08:15:57;5.30;;;4.30;;
25091;SDS011;13082;52.374;4.946;2024-01-10T08:18:23;4.83;;;4.20;;
25091;SDS011;13082;52.374;4.946;2024-01-10T08:20:49;4.20;;;3.40;;
25091;SDS011;13082;52.374;4.946;2024-01-10T08:23:14;4.87;;;3.93;;
25091;SDS011;13082;52.374;4.946;2024-01-10T08:25:40;9.60;;;4.00;;
25091;SDS011;13082;52.374;4.946;2024-01-10T08:28:06;5.47;;;4.37;;
25091;SDS011;13082;52.374;4.946;2024-01-10T08:30:31;5.67;;;3.90;;
25091;SDS011;13082;52.374;4.946;2024-01-10T08:32:57;7.13;;;4.90;;
25091;SDS011;13082;52.374;4.946;2024-01-10T08:35:24;4.70;;;3.60;;
25091;SDS011;13082;52.374;4.946;2024-01-10T08:37:50;6.57;;;4.33;;
25091;SDS011;13082;52.374;4.946;2024-01-10T08:40:15;6.87;;;4.23;;
25091;SDS011;13082;52.374;4.946;2024-01-10T08:42:42;6.33;;;4.27;;
25091;SDS011;13082;52.374;4.946;2024-01-10T08:45:08;6.67;;;4.03;;
25091;SDS011;13082;52.374;4.946;2024-01-10T08:47:36;4.97;;;4.30;;
25091;SDS011;13082;52.374;4.946;2024-01-10T08:50:03;7.53;;;4.53;;
25091;SDS011;13082;52.374;4.946;2024-01-10T08:52:30;7.07;;;4.10;;
25091;SDS011;13082;52.374;4.946;2024-01-10T08:54:56;6.07;;;4.13;;
25091;SDS011;13082;52.374;4.946;2024-01-10T08:57:22;5.90;;;4.43;;
25091;SDS011;13082;52.374;4.946;2024-01-10T08:59:47;5.57;;;4.07;;
25091;SDS011;13082;52.374;4.946;2024-01-10T09:02:13;7.33;;;4.80;;
25091;SDS011;13082;52.374;4.946;2024-01-10T09:04:39;4.80;;;3.87;;
25091;SDS011;13082;52.374;4.946;2024-01-10T09:07:06;6.97;;;4.10;;
25091;SDS011;13082;52.374;4.946;2024-01-10T09:09:34;8.90;;;4.63;;
25091;SDS011;13082;52.374;4.946;2024-01-10T09:12:00;6.30;;;4.60;;
25091;SDS011;13082;52.374;4.946;2024-01-10T09:14:25;7.57;;;4.53;;
25091;SDS011;13082;52.374;4.946;2024-01-10T09:16:51;5.50;;;4.17;;
25091;SDS011;13082;52.374;4.946;2024-01-10T09:19:17;7.47;;;4.40;;
25091;SDS011;13082;52.374;4.946;2024-01-10T09:21:43;6.70;;;4.10;;
25091;SDS011;13082;52.374;4.946;2024-01-10T09:24:09;6.30;;;4.10;;
25091;SDS011;13082;52.374;4.946;2024-01-10T09:26:36;5.27;;;3.93;;
25091;SDS011;13082;52.374;4.946;2024-01-10T09:29:02;5.60;;;4.00;;
25091;SDS011;13082;52.374;4.946;2024-01-10T09:31:27;7.90;;;4.67;;
25091;SDS011;13082;52.374;4.946;2024-01-10T09:33:53;6.20;;;4.53;;
25091;SDS011;13082;52.374;4.946;2024-01-10T09:36:19;6.20;;;4.50;;
25091;SDS011;13082;52.374;4.946;2024-01-10T09:38:44;5.97;;;4.07;;
25091;SDS011;13082;52.374;4.946;2024-01-10T09:41:10;6.50;;;4.37;;
25091;SDS011;13082;52.374;4.946;2024-01-10T09:43:38;6.10;;;4.20;;
25091;SDS011;13082;52.374;4.946;2024-01-10T09:46:04;6.33;;;4.70;;
25091;SDS011;13082;52.374;4.946;2024-01-10T09:48:32;6.13;;;3.87;;
25091;SDS011;13082;52.374;4.946;2024-01-10T09:50:58;7.47;;;4.10;;
25091;SDS011;13082;52.374;4.946;2024-01-10T09:53:25;5.47;;;4.10;;
25091;SDS011;13082;52.374;4.946;2024-01-10T09:55:55;6.67;;;4.83;;
25091;SDS011;13082;52.374;4.946;2024-01-10T09:58:26;5.20;;;4.30;;
25091;SDS011;13082;52.374;4.946;2024-01-10T10:00:52;6.93;;;5.20;;
25091;SDS011;13082;52.374;4.946;2024-01-10T10:03:18;6.20;;;4.17;;
25091;SDS011;13082;52.374;4.946;2024-01-10T10:05:44;7.13;;;4.77;;
25091;SDS011;13082;52.374;4.946;2024-01-10T10:08:10;5.77;;;4.50;;
25091;SDS011;13082;52.374;4.946;2024-01-10T10:10:38;5.73;;;4.57;;
25091;SDS011;13082;52.374;4.946;2024-01-10T10:13:09;6.47;;;4.57;;
25091;SDS011;13082;52.374;4.946;2024-01-10T10:15:40;6.97;;;4.50;;
25091;SDS011;13082;52.374;4.946;2024-01-10T10:18:05;6.93;;;4.80;;
25091;SDS011;13082;52.374;4.946;2024-01-10T10:20:31;6.17;;;4.80;;
25091;SDS011;13082;52.374;4.946;2024-01-10T10:23:04;8.00;;;5.40;;
25091;SDS011;13082;52.374;4.946;2024-01-10T10:25:42;6.63;;;5.17;;
25091;SDS011;13082;52.374;4.946;2024-01-10T10:28:09;5.70;;;4.73;;
25091;SDS011;13082;52.374;4.946;2024-01-10T10:30:34;6.97;;;5.03;;
25091;SDS011;13082;52.374;4.946;2024-01-10T10:33:03;6.63;;;4.97;;
25091;SDS011;13082;52.374;4.946;2024-01-10T10:35:29;5.80;;;4.37;;
25091;SDS011;13082;52.374;4.946;2024-01-10T10:37:55;6.40;;;4.47;;
25091;SDS011;13082;52.374;4.946;2024-01-10T10:40:21;6.63;;;4.63;;
25091;SDS011;13082;52.374;4.946;2024-01-10T10:42:47;7.43;;;4.80;;
25091;SDS011;13082;52.374;4.946;2024-01-10T10:45:20;5.47;;;4.27;;
25091;SDS011;13082;52.374;4.946;2024-01-10T10:47:50;5.97;;;4.73;;
25091;SDS011;13082;52.374;4.946;2024-01-10T10:50:24;6.27;;;4.87;;
25091;SDS011;13082;52.374;4.946;2024-01-10T10:52:55;6.17;;;4.57;;
25091;SDS011;13082;52.374;4.946;2024-01-10T10:55:22;8.50;;;4.93;;
25091;SDS011;13082;52.374;4.946;2024-01-10T10:57:51;5.73;;;4.30;;
25091;SDS011;13082;52.374;4.946;2024-01-10T11:00:19;5.87;;;4.80;;
25091;SDS011;13082;52.374;4.946;2024-01-10T11:02:46;6.37;;;4.77;;
25091;SDS011;13082;52.374;4.946;2024-01-10T11:05:12;7.37;;;4.53;;
25091;SDS011;13082;52.374;4.946;2024-01-10T11:07:42;7.90;;;4.83;;
25091;SDS011;13082;52.374;4.946;2024-01-10T11:10:16;6.13;;;4.63;;
25091;SDS011;13082;52.374;4.946;2024-01-10T11:21:56;5.57;;;4.67;;
25091;SDS011;13082;52.374;4.946;2024-01-10T11:24:31;8.13;;;5.23;;
25091;SDS011;13082;52.374;4.946;2024-01-10T11:27:07;6.30;;;4.70;;
25091;SDS011;13082;52.374;4.946;2024-01-10T11:29:39;7.10;;;5.27;;
25091;SDS011;13082;52.374;4.946;2024-01-10T11:32:06;5.93;;;4.57;;
25091;SDS011;13082;52.374;4.946;2024-01-10T11:34:35;8.17;;;5.33;;
25091;SDS011;13082;52.374;4.946;2024-01-10T11:37:10;6.57;;;4.77;;
25091;SDS011;13082;52.374;4.946;2024-01-10T11:39:36;7.83;;;4.93;;
25091;SDS011;13082;52.374;4.946;2024-01-10T11:42:03;5.70;;;4.60;;
25091;SDS011;13082;52.374;4.946;2024-01-10T11:44:28;7.00;;;5.40;;
25091;SDS011;13082;52.374;4.946;2024-01-10T11:46:55;5.43;;;4.47;;
25091;SDS011;13082;52.374;4.946;2024-01-10T11:49:22;6.60;;;4.77;;
25091;SDS011;13082;52.374;4.946;2024-01-10T11:51:49;5.60;;;4.90;;
25091;SDS011;13082;52.374;4.946;2024-01-10T11:57:02;6.87;;;4.87;;
25091;SDS011;13082;52.374;4.946;2024-01-10T11:59:32;6.23;;;4.87;;
25091;SDS011;13082;52.374;4.946;2024-01-10T12:01:58;6.80;;;4.53;;
25091;SDS011;13082;52.374;4.946;2024-01-10T12:04:24;6.43;;;5.10;;
25091;SDS011;13082;52.374;4.946;2024-01-10T12:06:54;7.97;;;5.10;;
25091;SDS011;13082;52.374;4.946;2024-01-10T12:09:21;9.23;;;5.73;;
25091;SDS011;13082;52.374;4.946;2024-01-10T12:11:46;6.73;;;5.63;;
25091;SDS011;13082;52.374;4.946;2024-01-10T12:14:13;8.43;;;5.43;;
25091;SDS011;13082;52.374;4.946;2024-01-10T12:16:40;6.37;;;5.23;;
25091;SDS011;13082;52.374;4.946;2024-01-10T12:19:06;5.67;;;4.37;;
25091;SDS011;13082;52.374;4.946;2024-01-10T12:21:31;5.87;;;5.17;;
25091;SDS011;13082;52.374;4.946;2024-01-10T12:23:57;6.40;;;4.70;;
25091;SDS011;13082;52.374;4.946;2024-01-10T12:26:22;7.63;;;4.90;;
25091;SDS011;13082;52.374;4.946;2024-01-10T12:28:58;6.00;;;5.00;;
25091;SDS011;13082;52.374;4.946;2024-01-10T12:31:27;7.07;;;4.83;;
25091;SDS011;13082;52.374;4.946;2024-01-10T12:33:59;6.13;;;4.80;;
25091;SDS011;13082;52.374;4.946;2024-01-10T12:36:25;6.20;;;4.80;;
25091;SDS011;13082;52.374;4.946;2024-01-10T12:38:51;6.70;;;5.13;;
25091;SDS011;13082;52.374;4.946;2024-01-10T12:41:20;9.10;;;5.20;;
25091;SDS011;13082;52.374;4.946;2024-01-10T12:43:49;6.63;;;4.67;;
25091;SDS011;13082;52.374;4.946;2024-01-10T12:46:17;5.67;;;4.70;;
25091;SDS011;13082;52.374;4.946;2024-01-10T12:48:42;5.33;;;4.70;;
25091;SDS011;13082;52.374;4.946;2024-01-10T12:51:09;8.53;;;4.93;;
25091;SDS011;13082;52.374;4.946;2024-01-10T12:53:36;7.50;;;5.23;;
25091;SDS011;13082;52.374;4.946;2024-01-10T12:56:03;6.13;;;4.77;;
25091;SDS011;13082;52.374;4.946;2024-01-10T12:58:30;8.93;;;5.30;;
25091;SDS011;13082;52.374;4.946;2024-01-10T13:00:56;6.50;;;4.83;;
25091;SDS011;13082;52.374;4.946;2024-01-10T13:03:22;7.30;;;5.23;;
25091;SDS011;13082;52.374;4.946;2024-01-10T13:05:49;7.07;;;4.77;;
25091;SDS011;13082;52.374;4.946;2024-01-10T13:08:15;8.27;;;5.30;;
25091;SDS011;13082;52.374;4.946;2024-01-10T13:10:41;6.90;;;5.17;;
25091;SDS011;13082;52.374;4.946;2024-01-10T13:13:07;7.73;;;5.00;;
25091;SDS011;13082;52.374;4.946;2024-01-10T13:15:33;5.93;;;4.93;;
25091;SDS011;13082;52.374;4.946;2024-01-10T13:17:59;6.40;;;4.47;;
25091;SDS011;13082;52.374;4.946;2024-01-10T13:20:25;6.33;;;4.77;;
25091;SDS011;13082;52.374;4.946;2024-01-10T13:22:51;7.00;;;4.73;;
25091;SDS011;13082;52.374;4.946;2024-01-10T13:25:16;8.93;;;5.57;;
25091;SDS011;13082;52.374;4.946;2024-01-10T13:27:43;7.80;;;5.70;;
25091;SDS011;13082;52.374;4.946;2024-01-10T13:30:08;5.67;;;4.77;;
25091;SDS011;13082;52.374;4.946;2024-01-10T13:32:37;8.33;;;5.40;;
25091;SDS011;13082;52.374;4.946;2024-01-10T13:35:06;6.03;;;4.93;;
25091;SDS011;13082;52.374;4.946;2024-01-10T13:37:32;7.13;;;5.27;;
25091;SDS011;13082;52.374;4.946;2024-01-10T13:39:57;6.77;;;5.37;;
25091;SDS011;13082;52.374;4.946;2024-01-10T13:42:23;6.50;;;4.90;;
25091;SDS011;13082;52.374;4.946;2024-01-10T13:44:49;7.07;;;4.83;;
25091;SDS011;13082;52.374;4.946;2024-01-10T13:47:19;7.17;;;5.17;;
25091;SDS011;13082;52.374;4.946;2024-01-10T13:49:46;6.53;;;4.70;;
25091;SDS011;13082;52.374;4.946;2024-01-10T13:52:12;7.20;;;5.37;;
25091;SDS011;13082;52.374;4.946;2024-01-10T13:54:38;7.33;;;5.60;;
25091;SDS011;13082;52.374;4.946;2024-01-10T13:57:03;8.00;;;5.77;;
25091;SDS011;13082;52.374;4.946;2024-01-10T13:59:29;7.37;;;5.63;;
25091;SDS011;13082;52.374;4.946;2024-01-10T14:01:55;8.47;;;5.10;;
25091;SDS011;13082;52.374;4.946;2024-01-10T14:04:21;6.07;;;5.30;;
25091;SDS011;13082;52.374;4.946;2024-01-10T14:06:47;8.57;;;5.27;;
25091;SDS011;13082;52.374;4.946;2024-01-10T14:09:13;8.63;;;5.10;;
25091;SDS011;13082;52.374;4.946;2024-01-10T14:11:39;7.50;;;4.80;;
25091;SDS011;13082;52.374;4.946;2024-01-10T14:14:04;8.27;;;5.30;;
25091;SDS011;13082;52.374;4.946;2024-01-10T14:16:30;11.47;;;5.17;;
25091;SDS011;13082;52.374;4.946;2024-01-10T14:18:56;8.27;;;5.40;;
25091;SDS011;13082;52.374;4.946;2024-01-10T14:21:21;7.20;;;5.00;;
25091;SDS011;13082;52.374;4.946;2024-01-10T14:23:47;6.83;;;5.03;;
25091;SDS011;13082;52.374;4.946;2024-01-10T14:26:16;5.27;;;4.63;;
25091;SDS011;13082;52.374;4.946;2024-01-10T14:28:42;7.17;;;5.20;;
25091;SDS011;13082;52.374;4.946;2024-01-10T14:31:08;6.77;;;5.23;;
25091;SDS011;13082;52.374;4.946;2024-01-10T14:33:38;7.97;;;5.23;;
25091;SDS011;13082;52.374;4.946;2024-01-10T14:36:04;11.40;;;5.57;;
25091;SDS011;13082;52.374;4.946;2024-01-10T14:38:30;9.30;;;5.33;;
25091;SDS011;13082;52.374;4.946;2024-01-10T14:40:56;7.60;;;5.50;;
25091;SDS011;13082;52.374;4.946;2024-01-10T14:43:21;7.93;;;5.20;;
25091;SDS011;13082;52.374;4.946;2024-01-10T14:45:47;6.53;;;5.23;;
25091;SDS011;13082;52.374;4.946;2024-01-10T14:48:13;9.10;;;6.43;;
25091;SDS011;13082;52.374;4.946;2024-01-10T14:50:39;8.80;;;5.27;;
25091;SDS011;13082;52.374;4.946;2024-01-10T14:53:05;8.93;;;5.50;;
25091;SDS011;13082;52.374;4.946;2024-01-10T14:55:30;5.97;;;4.80;;